Time;durP1;ratioP1;P1;durP2;ratioP2;P2;SDS_P1;SDS_P2;PMS_P1;PMS_P2;Temp;Humidity;BMP_temperature;BMP_pressure;BME280_temperature;BME280_humidity;BME280_pressure;Samples;Min_cycle;Max_cycle;Signal;HPM_P1;HPM_P2
2023/10/11 00:03:05;;;;;;;7.25;3.13;;;;;;;17.10;90.67;101386.53;5070996;28;20047;-74
2023/10/11 00:05:39;;;;;;;7.30;3.95;;;;;;;17.11;90.22;101398.13;5070726;28;20037;-74
2023/10/11 00:08:05;;;;;;;9.48;4.25;;;;;;;17.11;89.76;101390.03;5070848;28;20032;-74
2023/10/11 00:10:31;;;;;;;9.20;4.10;;;;;;;17.04;90.02;101384.75;5070714;28;20053;-74
2023/10/11 00:12:59;;;;;;;8.80;4.20;;;;;;;17.05;89.53;101384.50;5070633;28;20093;-74
2023/10/11 00:15:28;;;;;;;11.07;4.55;;;;;;;17.01;89.18;101379.81;5070565;28;20021;-74
2023/10/11 00:17:57;;;;;;;12.63;4.38;;;;;;;17.03;89.70;101389.31;5070546;28;20039;-75
2023/10/11 00:20:29;;;;;;;9.10;3.25;;;;;;;17.00;89.82;101384.41;5070455;28;20037;-74
2023/10/11 00:22:55;;;;;;;8.93;3.70;;;;;;;16.98;89.87;101386.50;5070495;28;20043;-74
2023/10/11 00:25:24;;;;;;;8.95;4.38;;;;;;;16.94;89.00;101384.47;5070299;28;20041;-74
2023/10/11 00:27:58;;;;;;;14.52;5.63;;;;;;;16.96;89.38;101393.97;5052389;28;20089;-74
2023/10/11 00:30:24;;;;;;;10.77;4.63;;;;;;;16.96;88.75;101385.06;5070400;28;20056;-74
2023/10/11 00:32:49;;;;;;;12.23;4.32;;;;;;;16.96;88.77;101377.81;5070257;28;20048;-74
2023/10/11 00:35:24;;;;;;;9.32;4.10;;;;;;;16.95;89.84;101369.94;5057845;28;20020;-74
2023/10/11 00:37:52;;;;;;;11.27;3.58;;;;;;;16.92;89.33;101375.78;5070218;28;20069;-74
2023/10/11 00:40:32;;;;;;;7.00;3.50;;;;;;;16.92;88.70;101379.28;5051730;28;20425;-74
2023/10/11 00:42:58;;;;;;;11.10;4.15;;;;;;;16.93;88.93;101380.94;5069940;28;20024;-74
2023/10/11 00:45:25;;;;;;;10.07;4.43;;;;;;;16.92;88.94;101378.47;5051438;28;20032;-74
2023/10/11 00:47:53;;;;;;;7.05;3.88;;;;;;;16.83;89.16;101368.00;5069801;28;20127;-74
2023/10/11 00:50:21;;;;;;;11.02;4.78;;;;;;;16.88;88.82;101375.41;5069769;28;20032;-74
2023/10/11 00:52:48;;;;;;;8.15;3.88;;;;;;;16.84;89.22;101363.44;5069783;28;20040;-74
2023/10/11 00:55:18;;;;;;;9.80;3.92;;;;;;;16.83;89.16;101361.78;5069421;28;20028;-74
2023/10/11 00:57:46;;;;;;;8.43;4.07;;;;;;;16.79;89.32;101366.81;5069713;28;20032;-74
2023/10/11 01:00:15;;;;;;;8.52;4.03;;;;;;;16.81;89.26;101367.41;5069710;28;20035;-74
2023/10/11 01:02:44;;;;;;;12.13;4.07;;;;;;;16.74;89.82;101357.72;5069731;28;20138;-74
2023/10/11 01:05:10;;;;;;;10.00;3.97;;;;;;;16.69;90.17;101354.88;5069537;28;20033;-74
2023/10/11 01:07:37;;;;;;;8.60;4.60;;;;;;;16.72;90.17;101360.66;5069423;28;20052;-74
2023/10/11 01:10:05;;;;;;;9.60;4.85;;;;;;;16.71;90.51;101361.69;5069440;28;20036;-74
2023/10/11 01:12:30;;;;;;;12.52;4.75;;;;;;;16.70;90.37;101360.03;5069103;28;20484;-74
2023/10/11 01:14:58;;;;;;;10.68;4.63;;;;;;;16.67;90.40;101357.00;5068962;28;20028;-74
2023/10/11 01:17:31;;;;;;;11.52;4.55;;;;;;;16.62;90.90;101355.78;5069174;28;20065;-74
2023/10/11 01:20:00;;;;;;;9.05;4.40;;;;;;;16.58;91.09;101348.38;5069250;28;20028;-74
2023/10/11 01:22:28;;;;;;;8.45;4.18;;;;;;;16.56;90.96;101345.91;5051741;28;20029;-74
2023/10/11 01:24:55;;;;;;;9.18;3.90;;;;;;;16.60;91.04;101355.19;5051167;28;20606;-74
2023/10/11 01:27:30;;;;;;;9.18;3.90;;;;;;;16.56;91.13;101351.31;5069287;28;20483;-74
2023/10/11 01:29:57;;;;;;;8.70;3.78;;;;;;;16.55;91.83;101346.13;5069162;28;21048;-74
2023/10/11 01:32:22;;;;;;;11.50;5.63;;;;;;;16.51;92.04;101353.03;5069065;28;20029;-74
2023/10/11 01:34:48;;;;;;;11.43;4.57;;;;;;;16.45;92.35;101343.94;5068834;28;20128;-74
2023/10/11 01:37:13;;;;;;;11.52;5.50;;;;;;;16.43;92.55;101340.69;5068937;28;20103;-75
2023/10/11 01:39:39;;;;;;;11.02;5.32;;;;;;;16.39;93.29;101347.53;5069040;28;20052;-74
2023/10/11 01:42:06;;;;;;;10.05;4.90;;;;;;;16.37;93.10;101350.47;5068729;28;20442;-74
2023/10/11 01:44:33;;;;;;;12.70;5.25;;;;;;;16.34;93.26;101353.59;5050781;28;20029;-74
2023/10/11 01:47:00;;;;;;;10.32;4.63;;;;;;;16.31;93.65;101347.84;5068993;28;20207;-75
2023/10/11 01:49:25;;;;;;;11.45;4.80;;;;;;;16.27;94.32;101342.09;5068817;28;20033;-74
2023/10/11 01:51:52;;;;;;;11.57;5.18;;;;;;;16.25;94.57;101340.66;5068104;28;20455;-74
2023/10/11 01:54:22;;;;;;;11.80;6.15;;;;;;;16.22;94.41;101339.22;5068644;28;20407;-74
2023/10/11 01:56:48;;;;;;;11.38;4.78;;;;;;;16.19;94.64;101337.81;5068474;28;20044;-74
2023/10/11 01:59:15;;;;;;;8.25;4.53;;;;;;;16.19;95.06;101340.50;5065231;28;20041;-74
2023/10/11 02:01:41;;;;;;;12.40;4.55;;;;;;;16.16;95.38;101327.47;5068206;28;20040;-74
2023/10/11 02:04:16;;;;;;;10.23;4.07;;;;;;;16.14;95.01;101328.75;5068339;28;20039;-75
2023/10/11 02:06:42;;;;;;;9.15;4.20;;;;;;;16.11;95.66;101321.94;5068464;28;20418;-74
2023/10/11 02:09:09;;;;;;;10.52;5.10;;;;;;;16.07;95.85;101322.59;5068454;28;20090;-74
2023/10/11 02:11:36;;;;;;;11.48;4.32;;;;;;;16.04;96.02;101318.50;5068577;28;20055;-74
2023/10/11 02:14:01;;;;;;;11.23;5.22;;;;;;;15.99;96.31;101308.38;5068321;28;20025;-74
2023/10/11 02:16:31;;;;;;;13.35;5.20;;;;;;;16.00;96.82;101309.19;5068320;28;20047;-74
2023/10/11 02:19:00;;;;;;;12.90;4.45;;;;;;;15.91;96.57;101303.28;5068324;28;20032;-74
2023/10/11 02:21:29;;;;;;;9.30;4.57;;;;;;;15.87;97.21;101299.38;5068261;28;20041;-75
2023/10/11 02:24:03;;;;;;;11.55;4.65;;;;;;;15.90;97.24;101298.97;5050169;28;20074;-74
2023/10/11 02:26:34;;;;;;;12.32;4.85;;;;;;;15.87;97.51;101302.06;5050325;28;20056;-74
2023/10/11 02:29:00;;;;;;;12.98;5.88;;;;;;;15.84;97.79;101305.22;5068099;28;20201;-74
2023/10/11 02:31:28;;;;;;;13.85;5.22;;;;;;;15.81;98.19;101299.47;5068416;28;20391;-74
2023/10/11 02:34:04;;;;;;;9.02;4.45;;;;;;;15.79;97.93;101302.34;5068227;28;20031;-74
2023/10/11 02:36:35;;;;;;;10.63;4.65;;;;;;;15.76;97.91;101295.53;5050093;28;20033;-74
2023/10/11 02:39:05;;;;;;;11.15;4.50;;;;;;;15.77;98.15;101291.84;5068162;28;20391;-74
2023/10/11 02:41:31;;;;;;;10.02;4.60;;;;;;;15.72;98.78;101293.53;5068248;28;20028;-74
2023/10/11 02:43:57;;;;;;;9.88;4.25;;;;;;;15.73;98.79;101296.00;5050187;28;20028;-74
2023/10/11 02:46:23;;;;;;;9.27;5.45;;;;;;;15.71;99.25;101302.63;5050269;28;20037;-74
2023/10/11 02:49:18;;;;;;;11.55;4.20;;;;;;;15.68;99.35;101298.50;5068092;28;20036;-74
2023/10/11 02:51:55;;;;;;;12.88;4.55;;;;;;;15.67;99.46;101296.03;5068118;28;20980;-74
2023/10/11 02:54:21;;;;;;;22.23;5.25;;;;;;;15.61;99.30;101291.50;5068020;28;20024;-74
2023/10/11 02:56:47;;;;;;;10.70;4.55;;;;;;;15.61;99.73;101294.19;5067438;28;20625;-75
2023/10/11 02:59:22;;;;;;;10.07;4.18;;;;;;;15.61;99.93;101288.81;5068059;28;20028;-74
2023/10/11 03:02:04;;;;;;;14.02;5.20;;;;;;;15.60;100.00;101287.19;5068011;28;20028;-74
2023/10/11 03:04:40;;;;;;;13.32;5.25;;;;;;;15.56;100.00;101290.31;5051571;28;20045;-74
2023/10/11 03:07:12;;;;;;;11.57;4.80;;;;;;;15.55;100.00;101288.66;5052414;28;20510;-74
2023/10/11 03:09:40;;;;;;;12.57;4.85;;;;;;;15.53;100.00;101290.72;5052786;28;20479;-74
2023/10/11 03:12:17;;;;;;;12.93;5.30;;;;;;;15.50;100.00;101283.09;5052579;28;20029;-74
2023/10/11 03:14:45;;;;;;;9.18;4.65;;;;;;;15.48;100.00;101277.16;5052588;28;20601;-75
2023/10/11 03:17:13;;;;;;;11.65;5.45;;;;;;;15.44;100.00;101275.13;5052593;28;20424;-74
2023/10/11 03:19:42;;;;;;;13.48;5.50;;;;;;;15.44;100.00;101267.88;5052258;28;20480;-74
2023/10/11 03:22:19;;;;;;;10.02;4.70;;;;;;;15.40;100.00;101269.34;5034589;28;20036;-74
2023/10/11 03:24:49;;;;;;;12.15;6.05;;;;;;;15.41;100.00;101273.69;5052341;28;20114;-74
2023/10/11 03:27:14;;;;;;;9.05;4.47;;;;;;;15.34;100.00;101265.66;5052282;28;20033;-74
2023/10/11 03:29:40;;;;;;;9.10;4.38;;;;;;;15.34;100.00;101279.09;5052158;28;20116;-74
2023/10/11 03:32:05;;;;;;;17.38;5.38;;;;;;;15.30;100.00;101280.59;5052151;28;20708;-74
2023/10/11 03:34:31;;;;;;;10.68;5.00;;;;;;;15.27;100.00;101264.06;5052145;28;20134;-74
2023/10/11 03:36:59;;;;;;;10.73;5.57;;;;;;;15.27;100.00;101266.75;5052034;28;20033;-74
2023/10/11 03:42:21;;;;;;;12.38;4.55;;;;;;;15.22;100.00;101266.56;5052024;28;20116;-74
2023/10/11 03:44:45;;;;;;;7.32;4.55;;;;;;;15.22;100.00;101267.41;5050834;28;20041;-74
2023/10/11 03:47:14;;;;;;;11.52;5.20;;;;;;;15.21;100.00;101273.81;5051845;28;20758;-74
2023/10/11 03:52:19;;;;;;;12.95;5.40;;;;;;;15.16;100.00;101270.13;5051970;28;20123;-74
2023/10/11 03:55:11;;;;;;;14.85;4.88;;;;;;;15.16;100.00;101257.50;5052054;28;20096;-74
2023/10/11 03:57:41;;;;;;;11.50;5.28;;;;;;;15.12;100.00;101261.69;5051887;28;20802;-74
2023/10/11 04:00:25;;;;;;;12.48;6.03;;;;;;;15.08;100.00;101263.97;5051890;28;20040;-74
2023/10/11 04:02:58;;;;;;;12.77;4.95;;;;;;;15.07;100.00;101258.84;5036364;28;20392;-74
2023/10/11 04:05:34;;;;;;;10.70;5.05;;;;;;;15.01;100.00;101263.22;5051582;28;20031;-74
2023/10/11 04:08:04;;;;;;;12.20;5.75;;;;;;;14.98;100.00;101252.06;5051849;28;20219;-74
2023/10/11 04:10:39;;;;;;;16.35;6.20;;;;;;;15.01;100.00;101265.03;5051595;28;20037;-75
2023/10/11 04:13:14;;;;;;;12.73;5.38;;;;;;;14.99;100.00;101262.59;5051729;28;20033;-74
2023/10/11 04:15:40;;;;;;;10.60;5.10;;;;;;;15.00;100.00;101263.41;5050750;28;20036;-74
2023/10/11 04:18:15;;;;;;;10.70;4.85;;;;;;;14.91;100.00;101244.06;5051364;28;20457;-74
2023/10/11 04:20:50;;;;;;;8.48;4.88;;;;;;;14.92;100.00;101240.31;5051438;28;20053;-74
2023/10/11 04:23:16;;;;;;;12.25;5.20;;;;;;;14.93;100.00;101243.81;5034952;28;20028;-74
2023/10/11 04:25:43;;;;;;;11.75;5.13;;;;;;;14.93;100.00;101239.25;5051144;28;20472;-74
2023/10/11 04:28:12;;;;;;;12.35;5.57;;;;;;;14.88;100.00;101223.81;5051191;28;20032;-74
2023/10/11 04:30:44;;;;;;;11.45;5.85;;;;;;;14.81;100.00;101220.34;5051191;28;20116;-74
2023/10/11 04:33:20;;;;;;;11.48;5.95;;;;;;;14.83;100.00;101231.69;5067491;28;20055;-74
2023/10/11 04:35:55;;;;;;;12.13;5.85;;;;;;;14.78;100.00;101234.19;5070191;28;20078;-74
2023/10/11 04:38:21;;;;;;;9.80;4.88;;;;;;;14.77;100.00;101234.41;5052158;28;20025;-74
2023/10/11 04:40:53;;;;;;;13.57;6.43;;;;;;;14.77;100.00;101242.47;5070030;28;20032;-74
2023/10/11 04:43:25;;;;;;;12.25;5.68;;;;;;;14.79;100.00;101251.13;5070164;28;20042;-74
2023/10/11 04:46:07;;;;;;;16.80;5.93;;;;;;;14.74;100.00;101246.41;5069769;28;20037;-74
2023/10/11 04:48:39;;;;;;;9.43;4.80;;;;;;;14.75;100.00;101248.06;5069909;28;20123;-74
2023/10/11 04:53:56;;;;;;;17.00;7.00;;;;;;;14.73;100.00;101250.13;5069583;28;20407;-74
2023/10/11 04:59:11;;;;;;;13.75;5.90;;;;;;;14.69;100.00;101248.91;5069608;28;20383;-74
2023/10/11 05:04:16;;;;;;;15.65;6.00;;;;;;;14.68;100.00;101247.25;5069695;28;20043;-74
2023/10/11 05:06:43;;;;;;;13.07;6.20;;;;;;;14.66;100.00;101252.03;5069588;28;20123;-74
2023/10/11 05:11:50;;;;;;;15.25;5.28;;;;;;;14.62;100.00;101250.81;5069293;28;20032;-74
2023/10/11 05:14:29;;;;;;;17.20;6.32;;;;;;;14.60;100.00;101247.50;5069535;28;20024;-74
2023/10/11 05:16:59;;;;;;;11.55;5.07;;;;;;;14.61;100.00;101249.97;5068961;28;20499;-74
2023/10/11 05:19:27;;;;;;;22.33;7.07;;;;;;;14.56;100.00;101249.78;5069133;28;20048;-74
2023/10/11 05:21:53;;;;;;;16.70;6.25;;;;;;;14.53;100.00;101249.41;5069009;28;20058;-74
2023/10/11 05:27:09;;;;;;;11.77;5.85;;;;;;;14.56;100.00;101263.19;5049180;28;20112;-74
2023/10/11 05:29:52;;;;;;;11.88;5.35;;;;;;;14.55;100.00;101268.81;5049978;28;20060;-74
2023/10/11 05:32:23;;;;;;;11.35;5.90;;;;;;;14.53;100.00;101265.50;5049747;28;20037;-74
2023/10/11 05:35:11;;;;;;;11.88;5.60;;;;;;;14.54;100.00;101267.13;5049866;28;20029;-74
2023/10/11 05:51:19;;;;;;;11.90;6.55;;;;;;;14.54;100.00;101264.44;5049757;28;20051;-74
2023/10/11 05:53:46;;;;;;;10.68;5.20;;;;;;;14.53;100.00;101260.94;5049486;28;20059;-74
2023/10/11 05:56:20;;;;;;;15.45;6.78;;;;;;;14.53;100.00;101273.56;5048847;28;20064;-73
2023/10/11 05:58:54;;;;;;;14.27;5.88;;;;;;;14.52;100.00;101266.53;5050725;28;20477;-74
2023/10/11 06:01:22;;;;;;;22.38;8.27;;;;;;;14.51;100.00;101267.53;5049709;28;20090;-74
2023/10/11 06:03:49;;;;;;;14.50;6.70;;;;;;;14.46;100.00;101260.13;5050599;28;20043;-74
2023/10/11 06:06:26;;;;;;;14.98;5.93;;;;;;;14.55;100.00;101276.84;5068299;28;20106;-74
2023/10/11 06:08:52;;;;;;;14.18;6.60;;;;;;;14.57;100.00;101283.66;5068437;28;20043;-74
2023/10/11 06:11:19;;;;;;;17.08;7.07;;;;;;;14.53;100.00;101269.00;5067492;28;20082;-74
2023/10/11 06:13:46;;;;;;;13.85;6.22;;;;;;;14.51;100.00;101256.81;5032474;28;20094;-73
2023/10/11 06:16:14;;;;;;;13.88;6.60;;;;;;;14.56;100.00;101267.75;5067997;28;20032;-74
2023/10/11 06:18:39;;;;;;;16.00;6.82;;;;;;;14.59;100.00;101264.63;5068047;28;20056;-74
2023/10/11 06:21:19;;;;;;;15.88;5.78;;;;;;;14.60;100.00;101264.44;5068269;28;20056;-73
2023/10/11 06:23:48;;;;;;;19.65;6.65;;;;;;;14.63;100.00;101261.31;5052682;28;20032;-73
2023/10/11 06:29:18;;;;;;;22.58;7.05;;;;;;;14.66;100.00;101257.38;5049201;28;20051;-74
2023/10/11 06:31:43;;;;;;;15.90;6.78;;;;;;;14.70;100.00;101266.69;5048931;28;20486;-74
2023/10/11 06:34:15;;;;;;;14.48;5.78;;;;;;;14.73;100.00;101260.88;5048884;28;20120;-73
2023/10/11 06:36:48;;;;;;;15.35;6.13;;;;;;;14.75;100.00;101264.19;5048879;28;20028;-71
2023/10/11 06:44:47;;;;;;;12.57;5.50;;;;;;;14.83;100.00;101271.16;5055439;28;20510;-74
2023/10/11 06:47:13;;;;;;;15.68;6.93;;;;;;;14.85;100.00;101272.56;5037356;28;20178;-73
2023/10/11 06:49:47;;;;;;;14.88;6.13;;;;;;;14.88;100.00;101277.53;5055261;28;20064;-74
2023/10/11 06:52:17;;;;;;;16.75;6.45;;;;;;;14.99;100.00;101281.41;5055267;28;20028;-73
2023/10/11 06:54:47;;;;;;;17.38;7.22;;;;;;;14.98;100.00;101278.91;5055297;28;20020;-74
2023/10/11 06:57:17;;;;;;;20.27;8.73;;;;;;;15.05;100.00;101285.91;5055376;28;20056;-74
2023/10/11 06:59:43;;;;;;;13.15;6.25;;;;;;;15.08;100.00;101290.00;5055411;28;20492;-74
2023/10/11 07:02:17;;;;;;;17.17;7.35;;;;;;;15.06;100.00;101279.50;5055251;28;20064;-74
2023/10/11 07:04:52;;;;;;;16.55;7.90;;;;;;;15.13;100.00;101285.63;5054647;28;20060;-74
2023/10/11 07:07:20;;;;;;;14.70;7.07;;;;;;;15.14;100.00;101281.09;5055263;28;20135;-75
2023/10/11 07:09:57;;;;;;;14.70;6.93;;;;;;;15.19;100.00;101275.06;5054872;28;20057;-76
2023/10/11 07:12:39;;;;;;;14.32;7.78;;;;;;;15.26;100.00;101291.97;5061763;28;20646;-73
2023/10/11 07:15:07;;;;;;;15.98;8.38;;;;;;;15.31;100.00;101287.59;5064771;28;20164;-70
2023/10/11 07:17:33;;;;;;;13.90;6.53;;;;;;;15.32;100.00;101291.09;5068335;28;20126;-75
2023/10/11 07:19:58;;;;;;;15.23;6.70;;;;;;;15.37;100.00;101299.34;5035893;28;20139;-77
2023/10/11 07:22:26;;;;;;;16.55;7.65;;;;;;;15.46;100.00;101316.88;5057036;28;20028;-75
2023/10/11 07:24:55;;;;;;;16.95;7.00;;;;;;;15.41;100.00;101310.50;5059262;28;20033;-75
2023/10/11 07:27:37;;;;;;;18.15;7.63;;;;;;;15.58;100.00;101335.78;5061880;28;20082;-76
2023/10/11 07:30:06;;;;;;;;;;;;;;;15.69;100.00;101340.53;5060158;28;20020;-72
2023/10/11 07:32:36;;;;;;;16.02;7.13;;;;;;;15.76;100.00;101327.81;5065288;28;19915;-74
2023/10/11 07:35:08;;;;;;;15.80;7.75;;;;;;;15.85;100.00;101338.31;5061959;28;20034;-75
2023/10/11 07:37:35;;;;;;;18.40;7.50;;;;;;;15.92;100.00;101339.91;5044761;28;20040;-75
2023/10/11 07:40:09;;;;;;;15.35;7.57;;;;;;;16.00;100.00;101336.94;5022756;28;20130;-75
2023/10/11 07:42:37;;;;;;;12.48;6.25;;;;;;;16.04;100.00;101328.44;5049596;28;20029;-75
2023/10/11 07:45:08;;;;;;;16.33;7.53;;;;;;;16.16;100.00;101340.09;5056135;28;20383;-75
2023/10/11 07:47:34;;;;;;;14.80;7.17;;;;;;;16.23;100.00;101324.72;5060174;28;20029;-75
2023/10/11 07:49:59;;;;;;;18.15;7.30;;;;;;;16.30;100.00;101319.28;5058236;28;20275;-76
2023/10/11 07:52:25;;;;;;;17.02;8.07;;;;;;;16.39;100.00;101315.22;5063110;28;20028;-75
2023/10/11 07:54:52;;;;;;;15.95;6.55;;;;;;;16.47;100.00;101317.63;5065800;28;20372;-75
2023/10/11 07:57:19;;;;;;;15.60;6.57;;;;;;;16.53;100.00;101324.81;5066343;28;20053;-76
2023/10/11 07:59:51;;;;;;;15.57;7.50;;;;;;;16.57;100.00;101320.63;5026466;28;20127;-74
2023/10/11 08:02:41;;;;;;;16.63;7.32;;;;;;;16.67;100.00;101317.41;5070022;28;20028;-70
2023/10/11 08:05:12;;;;;;;16.65;7.00;;;;;;;16.73;100.00;101312.97;5070619;28;20035;-71
2023/10/11 08:07:38;;;;;;;15.10;7.30;;;;;;;16.88;100.00;101315.31;5062250;28;20033;-75
2023/10/11 08:10:29;;;;;;;15.32;6.88;;;;;;;16.97;100.00;101320.16;5051287;28;20029;-74
2023/10/11 08:12:50;;;;;;;16.40;6.82;;;;;;;17.06;100.00;101309.91;5055418;28;20041;-76
2023/10/11 08:15:20;;;;;;;18.50;7.60;;;;;;;17.12;100.00;101327.03;5062937;28;20032;-76
2023/10/11 08:17:46;;;;;;;14.20;8.05;;;;;;;17.06;100.00;101329.56;5060678;28;20029;-74
2023/10/11 08:20:15;;;;;;;14.00;6.88;;;;;;;17.03;100.00;101313.06;5068320;28;20033;-74
2023/10/11 08:22:41;;;;;;;18.25;8.02;;;;;;;17.01;100.00;101320.53;5068586;28;20028;-74
2023/10/11 08:25:12;;;;;;;20.38;7.57;;;;;;;17.00;100.00;101317.03;5069962;28;20396;-73
2023/10/11 08:27:38;;;;;;;16.92;7.03;;;;;;;16.99;100.00;101322.63;5070230;28;20466;-73
2023/10/11 08:30:09;;;;;;;14.13;7.05;;;;;;;16.99;100.00;101320.75;5070278;28;20028;-74
2023/10/11 08:32:42;;;;;;;15.87;8.20;;;;;;;17.00;100.00;101329.66;5062834;28;20063;-74
2023/10/11 08:35:31;;;;;;;18.60;7.85;;;;;;;16.96;100.00;101329.28;5069858;28;20387;-74
2023/10/11 08:38:02;;;;;;;13.15;6.60;;;;;;;17.00;100.00;101333.19;5068674;28;20020;-74
2023/10/11 08:40:35;;;;;;;15.63;6.73;;;;;;;17.11;100.00;101336.13;5033699;28;20550;-74
2023/10/11 08:43:02;;;;;;;17.42;6.90;;;;;;;17.18;100.00;101334.19;5055341;28;20033;-75
2023/10/11 08:45:32;;;;;;;18.67;7.70;;;;;;;17.22;100.00;101338.09;5058338;28;20459;-73
2023/10/11 08:48:03;;;;;;;18.27;7.50;;;;;;;17.31;100.00;101337.50;5050785;28;20036;-75
2023/10/11 08:50:32;;;;;;;15.50;7.35;;;;;;;17.38;100.00;101339.31;5051598;28;20297;-76
2023/10/11 08:53:01;;;;;;;13.02;6.75;;;;;;;17.46;100.00;101338.97;5057030;28;20094;-75
2023/10/11 08:55:26;;;;;;;20.20;8.63;;;;;;;17.55;100.00;101339.47;5062627;28;20365;-73
2023/10/11 08:57:53;;;;;;;15.88;6.97;;;;;;;17.68;100.00;101328.47;5042053;28;20120;-71
2023/10/11 09:00:29;;;;;;;14.85;7.32;;;;;;;17.79;100.00;101332.22;5025368;28;20052;-72
2023/10/11 09:03:13;;;;;;;17.55;7.05;;;;;;;17.67;100.00;101343.81;5050248;28;20383;-72
2023/10/11 09:05:42;;;;;;;17.83;8.20;;;;;;;17.56;100.00;101341.13;5055170;28;20029;-66
2023/10/11 09:08:20;;;;;;;18.15;7.22;;;;;;;17.61;100.00;101360.94;5007716;28;20384;-72
2023/10/11 09:10:49;;;;;;;15.52;8.13;;;;;;;17.59;100.00;101360.34;5065302;28;20479;-73
2023/10/11 09:13:25;;;;;;;16.90;8.18;;;;;;;17.56;100.00;101362.69;5061593;28;20029;-72
2023/10/11 09:15:54;;;;;;;18.35;9.10;;;;;;;17.56;100.00;101360.00;5054330;28;20044;-71
2023/10/11 09:18:20;;;;;;;17.40;8.70;;;;;;;17.53;100.00;101366.69;5055870;28;20480;-73
2023/10/11 09:20:55;;;;;;;22.88;11.20;;;;;;;17.47;100.00;101354.09;5053148;28;20043;-72
2023/10/11 09:23:34;;;;;;;19.77;10.63;;;;;;;17.55;100.00;101342.97;5060696;28;20025;-71
2023/10/11 09:26:00;;;;;;;22.13;10.98;;;;;;;17.56;100.00;101354.59;5031822;28;20087;-72
2023/10/11 09:28:26;;;;;;;18.17;9.63;;;;;;;17.61;100.00;101358.25;5031442;28;20040;-72
2023/10/11 09:31:11;;;;;;;21.00;11.23;;;;;;;17.64;100.00;101356.97;5049998;28;20032;-72
2023/10/11 09:33:40;;;;;;;20.10;11.15;;;;;;;17.55;100.00;101355.63;5052380;28;20035;-72
2023/10/11 09:36:07;;;;;;;22.08;11.57;;;;;;;17.51;100.00;101361.50;5052351;28;20020;-73
2023/10/11 09:38:39;;;;;;;23.27;13.05;;;;;;;17.47;100.00;101352.22;5049639;28;20540;-72
2023/10/11 09:41:08;;;;;;;21.73;12.27;;;;;;;17.50;100.00;101357.16;5049459;28;20158;-72
2023/10/11 09:43:45;;;;;;;24.48;11.80;;;;;;;17.50;100.00;101361.72;5049522;28;20033;-72
2023/10/11 09:46:11;;;;;;;23.73;11.23;;;;;;;17.46;100.00;101380.25;5047817;28;20526;-72
2023/10/11 09:48:41;;;;;;;20.63;11.68;;;;;;;17.43;100.00;101369.09;5047317;28;20025;-72
2023/10/11 09:51:20;;;;;;;28.50;13.63;;;;;;;17.46;100.00;101382.13;5047378;28;20128;-72
2023/10/11 09:53:53;;;;;;;20.45;11.48;;;;;;;17.47;100.00;101372.97;5047238;28;20261;-72
2023/10/11 09:56:31;;;;;;;22.55;11.85;;;;;;;17.46;100.00;101380.25;5066088;28;20055;-72
2023/10/11 09:59:13;;;;;;;28.70;13.38;;;;;;;17.49;100.00;101385.16;5048376;28;20135;-72
2023/10/11 10:01:55;;;;;;;27.40;13.38;;;;;;;17.46;100.00;101374.84;5066428;28;20028;-72
2023/10/11 10:04:50;;;;;;;24.65;12.45;;;;;;;17.45;100.00;101380.50;5066450;28;20475;-72
2023/10/11 10:07:25;;;;;;;23.60;12.80;;;;;;;17.36;100.00;101366.50;5067114;28;20027;-72
2023/10/11 10:09:59;;;;;;;28.70;14.45;;;;;;;17.42;100.00;101378.22;5055500;28;20032;-73
2023/10/11 10:12:54;;;;;;;25.65;13.75;;;;;;;17.37;100.00;101368.16;5042664;28;20048;-73
2023/10/11 10:15:23;;;;;;;26.75;14.73;;;;;;;17.42;100.00;101376.38;5057756;28;20041;-73
2023/10/11 10:17:57;;;;;;;30.38;14.75;;;;;;;17.45;100.00;101377.78;5044217;28;20028;-74
2023/10/11 10:20:32;;;;;;;24.75;15.15;;;;;;;17.47;100.00;101368.38;5060292;28;20033;-73
2023/10/11 10:23:16;;;;;;;30.77;16.42;;;;;;;17.58;100.00;101377.59;5040474;28;20544;-72
2023/10/11 10:25:46;;;;;;;25.73;14.05;;;;;;;17.57;100.00;101378.63;5043817;28;21041;-73
2023/10/11 10:28:34;;;;;;;22.80;13.73;;;;;;;17.71;100.00;101376.53;5061149;28;20034;-75
2023/10/11 10:31:09;;;;;;;26.17;13.63;;;;;;;17.71;100.00;101372.00;5067440;28;20114;-75
2023/10/11 10:33:35;;;;;;;29.25;14.30;;;;;;;17.66;100.00;101362.97;5064048;28;20089;-75
2023/10/11 10:36:20;;;;;;;30.35;15.23;;;;;;;17.69;100.00;101389.47;5065616;28;20074;-75
2023/10/11 10:41:41;;;;;;;27.80;15.40;;;;;;;17.59;100.00;101368.44;5062891;28;20042;-74
2023/10/11 10:44:11;;;;;;;24.48;13.20;;;;;;;17.67;100.00;101372.69;5048088;28;20395;-75
2023/10/11 10:46:37;;;;;;;27.27;15.70;;;;;;;17.61;100.00;101365.53;5060952;28;20063;-73
2023/10/11 10:49:03;;;;;;;25.85;14.68;;;;;;;17.60;100.00;101388.13;5060380;28;20481;-73
2023/10/11 10:51:39;;;;;;;26.75;14.48;;;;;;;17.60;100.00;101388.13;5060483;28;20036;-73
2023/10/11 10:54:12;;;;;;;24.83;14.48;;;;;;;17.60;100.00;101386.25;5060041;28;20035;-72
2023/10/11 10:56:39;;;;;;;27.15;14.57;;;;;;;17.60;100.00;101388.13;5038503;28;20061;-72
2023/10/11 10:59:12;;;;;;;28.95;14.48;;;;;;;17.60;100.00;101383.56;5059419;28;20028;-72
2023/10/11 11:01:44;;;;;;;26.55;14.60;;;;;;;17.59;100.00;101378.41;5055384;28;20846;-73
2023/10/11 11:04:11;;;;;;;26.48;14.68;;;;;;;17.58;100.00;101383.00;5039154;28;20098;-73
2023/10/11 11:06:45;;;;;;;25.75;14.32;;;;;;;17.61;100.00;101385.22;5042645;28;20025;-73
2023/10/11 11:09:14;;;;;;;26.88;14.45;;;;;;;17.63;100.00;101387.66;5040758;28;20060;-73
2023/10/11 11:11:43;;;;;;;24.75;13.40;;;;;;;17.65;100.00;101386.38;5059958;28;20036;-73
2023/10/11 11:14:10;;;;;;;32.20;16.67;;;;;;;17.62;100.00;101367.97;5057850;28;20530;-72
2023/10/11 11:16:39;;;;;;;28.45;13.82;;;;;;;17.61;100.00;101368.22;5061266;28;20043;-72
2023/10/11 11:19:18;;;;;;;27.05;15.32;;;;;;;17.58;100.00;101352.47;5059843;28;20450;-73
2023/10/11 11:21:44;;;;;;;27.75;14.63;;;;;;;17.64;100.00;101351.56;5054442;28;20028;-73
2023/10/11 11:24:18;;;;;;;26.33;14.63;;;;;;;17.67;100.00;101351.09;5061756;28;20037;-72
2023/10/11 11:26:44;;;;;;;28.80;14.48;;;;;;;17.69;100.00;101355.22;5061441;28;20032;-75
2023/10/11 11:29:16;;;;;;;30.95;15.65;;;;;;;17.68;100.00;101353.59;5042099;28;20810;-72
2023/10/11 11:31:53;;;;;;;30.80;14.60;;;;;;;17.72;100.00;101353.94;5036769;28;20064;-72
2023/10/11 11:34:33;;;;;;;25.25;14.13;;;;;;;17.72;100.00;101351.22;5070835;28;20024;-71
2023/10/11 11:37:04;;;;;;;26.17;15.77;;;;;;;17.69;100.00;101327.41;5052274;28;20029;-72
2023/10/11 11:42:01;;;;;;;27.20;15.00;;;;;;;17.82;100.00;101318.31;5059798;28;20114;-72
2023/10/11 11:44:31;;;;;;;25.38;14.07;;;;;;;17.85;100.00;101318.66;5049376;28;20119;-72
2023/10/11 11:47:04;;;;;;;23.17;13.23;;;;;;;17.80;100.00;101307.75;5068231;28;20472;-72
2023/10/11 11:49:29;;;;;;;28.23;14.02;;;;;;;17.80;100.00;101307.75;5058741;28;20021;-72
2023/10/11 11:51:57;;;;;;;29.20;14.55;;;;;;;17.86;100.00;101314.09;5017108;28;20392;-72
2023/10/11 11:54:28;;;;;;;24.33;14.98;;;;;;;17.87;100.00;101304.94;5034982;28;20039;-72
2023/10/11 11:56:54;;;;;;;25.73;14.50;;;;;;;17.92;100.00;101305.88;5057800;28;20539;-72
2023/10/11 11:59:29;;;;;;;26.50;15.23;;;;;;;17.89;100.00;101295.56;5057910;28;20024;-72
2023/10/11 12:01:56;;;;;;;26.02;13.43;;;;;;;17.88;100.00;101288.50;5052069;28;20028;-72
2023/10/11 12:04:29;;;;;;;28.70;14.95;;;;;;;17.94;100.00;101275.94;5057676;28;20991;-72
2023/10/11 12:07:07;;;;;;;24.60;13.65;;;;;;;18.08;100.00;101263.88;5049809;28;20064;-72
2023/10/11 12:09:34;;;;;;;23.27;12.27;;;;;;;18.27;100.00;101269.13;5033386;28;20025;-72
2023/10/11 12:12:05;;;;;;;28.33;12.40;;;;;;;18.45;100.00;101268.97;5051393;28;20269;-72
2023/10/11 12:14:31;;;;;;;21.30;12.75;;;;;;;18.59;100.00;101274.91;5052287;28;20043;-72
2023/10/11 12:16:57;;;;;;;24.92;12.30;;;;;;;18.58;100.00;101271.41;5052555;28;20051;-72